sensor_id;sensor_type;location;lat;lon;timestamp;pressure;altitude;pressure_sealevel;temperature;humidity
72262;BME280;60173;52.112;8.648;2022-07-10T00:00:43;101512.13;;;13.54;68.96
72262;BME280;60173;52.112;8.648;2022-07-10T00:03:10;101514.44;;;13.66;68.68
72262;BME280;60173;52.112;8.648;2022-07-10T00:05:36;101511.47;;;13.63;68.82
72262;BME280;60173;52.112;8.648;2022-07-10T00:08:03;101509.19;;;13.70;68.15
72262;BME280;60173;52.112;8.648;2022-07-10T00:10:30;101507.47;;;13.74;67.89
72262;BME280;60173;52.112;8.648;2022-07-10T00:12:56;101500.63;;;13.76;67.73
72262;BME280;60173;52.112;8.648;2022-07-10T00:15:23;101500.28;;;13.83;67.67
72262;BME280;60173;52.112;8.648;2022-07-10T00:17:49;101495.84;;;13.87;67.58
72262;BME280;60173;52.112;8.648;2022-07-10T00:20:16;101501.91;;;13.84;67.41
72262;BME280;60173;52.112;8.648;2022-07-10T00:22:42;101494.34;;;13.76;67.63
72262;BME280;60173;52.112;8.648;2022-07-10T00:25:12;101487.88;;;13.72;67.79
72262;BME280;60173;52.112;8.648;2022-07-10T00:27:39;101491.34;;;13.77;67.31
72262;BME280;60173;52.112;8.648;2022-07-10T00:30:06;101488.91;;;13.76;67.45
72262;BME280;60173;52.112;8.648;2022-07-10T00:32:33;101491.69;;;13.71;67.52
72262;BME280;60173;52.112;8.648;2022-07-10T00:34:59;101484.78;;;13.78;67.02
72262;BME280;60173;52.112;8.648;2022-07-10T00:37:25;101484.50;;;13.80;67.38
72262;BME280;60173;52.112;8.648;2022-07-10T00:39:52;101490.88;;;13.70;67.41
72262;BME280;60173;52.112;8.648;2022-07-10T00:42:18;101483.28;;;13.67;67.32
72262;BME280;60173;52.112;8.648;2022-07-10T00:44:45;101493.34;;;13.72;67.36
72262;BME280;60173;52.112;8.648;2022-07-10T00:47:11;101491.69;;;13.71;67.23
72262;BME280;60173;52.112;8.648;2022-07-10T00:49:38;101494.03;;;13.59;68.06
72262;BME280;60173;52.112;8.648;2022-07-10T00:52:11;101489.19;;;13.55;68.12
72262;BME280;60173;52.112;8.648;2022-07-10T00:54:40;101489.63;;;13.63;68.07
72262;BME280;60173;52.112;8.648;2022-07-10T00:57:08;101493.06;;;13.49;68.62
72262;BME280;60173;52.112;8.648;2022-07-10T00:59:35;101492.88;;;13.65;68.29
72262;BME280;60173;52.112;8.648;2022-07-10T01:02:03;101495.22;;;13.52;69.13
72262;BME280;60173;52.112;8.648;2022-07-10T01:04:31;101479.22;;;13.46;69.14
72262;BME280;60173;52.112;8.648;2022-07-10T01:06:58;101481.94;;;13.65;68.38
72262;BME280;60173;52.112;8.648;2022-07-10T01:09:25;101478.13;;;13.66;68.75
72262;BME280;60173;52.112;8.648;2022-07-10T01:11:52;101479.81;;;13.62;68.73
72262;BME280;60173;52.112;8.648;2022-07-10T01:14:19;101474.41;;;13.56;68.79
72262;BME280;60173;52.112;8.648;2022-07-10T01:16:46;101477.06;;;13.62;69.10
72262;BME280;60173;52.112;8.648;2022-07-10T01:19:13;101476.75;;;13.44;69.18
72262;BME280;60173;52.112;8.648;2022-07-10T01:21:39;101476.31;;;13.37;69.84
72262;BME280;60173;52.112;8.648;2022-07-10T01:24:10;101468.34;;;13.41;69.97
72262;BME280;60173;52.112;8.648;2022-07-10T01:26:37;101465.84;;;13.44;69.84
72262;BME280;60173;52.112;8.648;2022-07-10T01:29:05;101464.91;;;13.54;69.85
72262;BME280;60173;52.112;8.648;2022-07-10T01:31:33;101467.03;;;13.38;70.27
72262;BME280;60173;52.112;8.648;2022-07-10T01:34:00;101471.31;;;13.44;69.93
72262;BME280;60173;52.112;8.648;2022-07-10T01:36:28;101473.06;;;13.35;70.42
72262;BME280;60173;52.112;8.648;2022-07-10T01:38:55;101462.69;;;13.56;69.95
72262;BME280;60173;52.112;8.648;2022-07-10T01:41:22;101470.28;;;13.40;70.46
72262;BME280;60173;52.112;8.648;2022-07-10T01:43:49;101475.25;;;13.33;70.56
72262;BME280;60173;52.112;8.648;2022-07-10T01:46:16;101466.81;;;13.34;70.53
72262;BME280;60173;52.112;8.648;2022-07-10T01:48:43;101462.78;;;13.27;70.45
72262;BME280;60173;52.112;8.648;2022-07-10T01:51:10;101459.84;;;13.42;70.22
72262;BME280;60173;52.112;8.648;2022-07-10T01:53:37;101452.41;;;13.29;70.72
72262;BME280;60173;52.112;8.648;2022-07-10T01:56:06;101446.94;;;13.29;70.72
72262;BME280;60173;52.112;8.648;2022-07-10T01:58:33;101444.50;;;13.27;70.85
72262;BME280;60173;52.112;8.648;2022-07-10T02:01:01;101437.28;;;13.12;71.09
72262;BME280;60173;52.112;8.648;2022-07-10T02:03:27;101427.88;;;13.24;71.26
72262;BME280;60173;52.112;8.648;2022-07-10T02:05:54;101430.28;;;13.06;71.40
72262;BME280;60173;52.112;8.648;2022-07-10T02:08:20;101439.97;;;13.18;71.38
72262;BME280;60173;52.112;8.648;2022-07-10T02:10:46;101439.78;;;13.33;70.92
72262;BME280;60173;52.112;8.648;2022-07-10T02:13:13;101432.88;;;13.41;70.69
72262;BME280;60173;52.112;8.648;2022-07-10T02:15:39;101433.25;;;13.34;70.86
72262;BME280;60173;52.112;8.648;2022-07-10T02:18:05;101431.97;;;13.26;70.99
72262;BME280;60173;52.112;8.648;2022-07-10T02:20:32;101429.63;;;13.15;71.44
72262;BME280;60173;52.112;8.648;2022-07-10T02:22:58;101417.56;;;13.21;71.22
72262;BME280;60173;52.112;8.648;2022-07-10T02:25:25;101430.91;;;13.22;71.06
72262;BME280;60173;52.112;8.648;2022-07-10T02:27:51;101423.72;;;13.31;71.10
72262;BME280;60173;52.112;8.648;2022-07-10T02:30:18;101429.50;;;13.25;71.17
72262;BME280;60173;52.112;8.648;2022-07-10T02:32:44;101427.88;;;13.24;71.40
72262;BME280;60173;52.112;8.648;2022-07-10T02:35:11;101426.25;;;13.23;71.13
72262;BME280;60173;52.112;8.648;2022-07-10T02:37:37;101425.72;;;13.26;71.13
72262;BME280;60173;52.112;8.648;2022-07-10T02:40:04;101420.13;;;13.12;71.44
72262;BME280;60173;52.112;8.648;2022-07-10T02:42:30;101424.72;;;13.17;71.55
72262;BME280;60173;52.112;8.648;2022-07-10T02:44:56;101412.59;;;13.28;71.40
72262;BME280;60173;52.112;8.648;2022-07-10T02:47:23;101418.59;;;13.25;71.34
72262;BME280;60173;52.112;8.648;2022-07-10T02:49:49;101414.28;;;13.19;71.56
72262;BME280;60173;52.112;8.648;2022-07-10T02:52:16;101418.66;;;13.20;71.73
72262;BME280;60173;52.112;8.648;2022-07-10T02:54:42;101421.97;;;13.17;71.33
72262;BME280;60173;52.112;8.648;2022-07-10T02:57:08;101408.84;;;13.19;71.41
72262;BME280;60173;52.112;8.648;2022-07-10T02:59:35;101402.34;;;13.15;71.59
72262;BME280;60173;52.112;8.648;2022-07-10T03:02:01;101409.22;;;12.88;72.55
72262;BME280;60173;52.112;8.648;2022-07-10T03:04:28;101410.66;;;13.04;72.48
72262;BME280;60173;52.112;8.648;2022-07-10T03:06:54;101407.94;;;13.04;72.38
72262;BME280;60173;52.112;8.648;2022-07-10T03:09:21;101409.09;;;12.98;72.65
72262;BME280;60173;52.112;8.648;2022-07-10T03:11:47;101408.41;;;13.11;72.16
72262;BME280;60173;52.112;8.648;2022-07-10T03:14:13;101405.72;;;13.06;71.98
72262;BME280;60173;52.112;8.648;2022-07-10T03:16:40;101409.00;;;13.08;72.19
72262;BME280;60173;52.112;8.648;2022-07-10T03:19:06;101414.50;;;13.03;72.56
72262;BME280;60173;52.112;8.648;2022-07-10T03:21:33;101405.19;;;13.04;72.55
72262;BME280;60173;52.112;8.648;2022-07-10T03:23:59;101406.63;;;13.02;72.52
72262;BME280;60173;52.112;8.648;2022-07-10T03:26:25;101405.78;;;13.01;72.56
72262;BME280;60173;52.112;8.648;2022-07-10T03:28:52;101406.25;;;13.08;72.05
72262;BME280;60173;52.112;8.648;2022-07-10T03:31:18;101407.88;;;13.09;72.17
72262;BME280;60173;52.112;8.648;2022-07-10T03:33:45;101401.66;;;13.04;72.71
72262;BME280;60173;52.112;8.648;2022-07-10T03:36:11;101404.91;;;13.06;72.32
72262;BME280;60173;52.112;8.648;2022-07-10T03:38:37;101407.22;;;13.18;72.54
72262;BME280;60173;52.112;8.648;2022-07-10T03:41:04;101399.94;;;12.89;73.09
72262;BME280;60173;52.112;8.648;2022-07-10T03:43:31;101410.25;;;12.92;73.13
72262;BME280;60173;52.112;8.648;2022-07-10T03:45:58;101412.41;;;12.95;73.27
72262;BME280;60173;52.112;8.648;2022-07-10T03:48:24;101404.22;;;12.95;73.04
72262;BME280;60173;52.112;8.648;2022-07-10T03:50:51;101406.91;;;13.00;72.82
72262;BME280;60173;52.112;8.648;2022-07-10T03:53:18;101407.75;;;12.96;73.37
72262;BME280;60173;52.112;8.648;2022-07-10T03:55:45;101413.22;;;12.96;73.19
72262;BME280;60173;52.112;8.648;2022-07-10T03:58:11;101415.03;;;13.05;73.27
72262;BME280;60173;52.112;8.648;2022-07-10T04:00:38;101414.97;;;13.10;72.96
72262;BME280;60173;52.112;8.648;2022-07-10T04:03:05;101411.72;;;13.08;73.27
72262;BME280;60173;52.112;8.648;2022-07-10T04:05:32;101411.81;;;12.98;73.34
72262;BME280;60173;52.112;8.648;2022-07-10T04:08:00;101409.09;;;12.98;73.46
72262;BME280;60173;52.112;8.648;2022-07-10T04:10:28;101409.69;;;12.95;73.57
72262;BME280;60173;52.112;8.648;2022-07-10T04:12:55;101415.72;;;12.92;73.60
72262;BME280;60173;52.112;8.648;2022-07-10T04:15:22;101418.22;;;12.88;73.74
72262;BME280;60173;52.112;8.648;2022-07-10T04:17:49;101407.16;;;12.99;73.33
72262;BME280;60173;52.112;8.648;2022-07-10T04:20:16;101416.09;;;13.04;73.59
72262;BME280;60173;52.112;8.648;2022-07-10T04:22:43;101411.78;;;13.03;74.32
72262;BME280;60173;52.112;8.648;2022-07-10T04:25:10;101414.19;;;12.81;75.47
72262;BME280;60173;52.112;8.648;2022-07-10T04:27:37;101407.53;;;12.92;74.67
72262;BME280;60173;52.112;8.648;2022-07-10T04:30:04;101407.47;;;12.97;74.46
72262;BME280;60173;52.112;8.648;2022-07-10T04:32:31;101408.88;;;12.95;74.31
72262;BME280;60173;52.112;8.648;2022-07-10T04:34:58;101411.91;;;12.93;74.11
72262;BME280;60173;52.112;8.648;2022-07-10T04:37:24;101410.66;;;13.04;73.63
72262;BME280;60173;52.112;8.648;2022-07-10T04:39:51;101415.69;;;13.16;73.02
72262;BME280;60173;52.112;8.648;2022-07-10T04:42:24;101417.81;;;13.00;73.57
72262;BME280;60173;52.112;8.648;2022-07-10T04:44:50;101413.38;;;13.04;73.05
72262;BME280;60173;52.112;8.648;2022-07-10T04:47:16;101414.81;;;13.02;73.32
72262;BME280;60173;52.112;8.648;2022-07-10T04:49:43;101424.38;;;12.99;73.11
72262;BME280;60173;52.112;8.648;2022-07-10T04:52:09;101424.19;;;12.91;74.03
72262;BME280;60173;52.112;8.648;2022-07-10T04:54:36;101417.47;;;12.83;74.23
72262;BME280;60173;52.112;8.648;2022-07-10T04:57:02;101419.41;;;13.01;73.77
72262;BME280;60173;52.112;8.648;2022-07-10T04:59:28;101414.28;;;13.19;72.93
72262;BME280;60173;52.112;8.648;2022-07-10T05:01:55;101413.25;;;13.39;71.98
72262;BME280;60173;52.112;8.648;2022-07-10T05:04:21;101419.13;;;13.27;72.05
72262;BME280;60173;52.112;8.648;2022-07-10T05:06:48;101420.94;;;13.37;72.04
72262;BME280;60173;52.112;8.648;2022-07-10T05:09:14;101417.78;;;13.24;72.75
72262;BME280;60173;52.112;8.648;2022-07-10T05:11:40;101414.91;;;13.40;72.77
72262;BME280;60173;52.112;8.648;2022-07-10T05:14:07;101410.09;;;13.31;72.01
72262;BME280;60173;52.112;8.648;2022-07-10T05:16:33;101425.53;;;13.60;71.23
72262;BME280;60173;52.112;8.648;2022-07-10T05:18:59;101428.09;;;13.51;71.41
72262;BME280;60173;52.112;8.648;2022-07-10T05:21:26;101421.97;;;13.41;71.98
72262;BME280;60173;52.112;8.648;2022-07-10T05:23:52;101427.41;;;13.41;71.40
72262;BME280;60173;52.112;8.648;2022-07-10T05:26:18;101421.38;;;13.44;71.37
72262;BME280;60173;52.112;8.648;2022-07-10T05:28:45;101422.28;;;13.58;70.96
72262;BME280;60173;52.112;8.648;2022-07-10T05:31:11;101420.94;;;13.55;71.23
72262;BME280;60173;52.112;8.648;2022-07-10T05:33:38;101418.56;;;13.68;70.70
72262;BME280;60173;52.112;8.648;2022-07-10T05:36:05;101417.78;;;13.86;70.77
72262;BME280;60173;52.112;8.648;2022-07-10T05:38:31;101424.25;;;13.90;70.60
72262;BME280;60173;52.112;8.648;2022-07-10T05:40:57;101417.78;;;13.67;71.31
72262;BME280;60173;52.112;8.648;2022-07-10T05:43:24;101421.25;;;13.73;71.43
72262;BME280;60173;52.112;8.648;2022-07-10T05:45:50;101432.97;;;13.92;70.59
72262;BME280;60173;52.112;8.648;2022-07-10T05:48:23;101427.19;;;14.13;70.36
72262;BME280;60173;52.112;8.648;2022-07-10T05:50:50;101422.13;;;14.20;69.84
72262;BME280;60173;52.112;8.648;2022-07-10T05:53:16;101419.41;;;14.20;69.77
72262;BME280;60173;52.112;8.648;2022-07-10T05:55:42;101422.63;;;14.41;69.56
72262;BME280;60173;52.112;8.648;2022-07-10T05:58:09;101425.00;;;14.29;68.73
72262;BME280;60173;52.112;8.648;2022-07-10T06:00:35;101432.47;;;14.23;69.34
72262;BME280;60173;52.112;8.648;2022-07-10T06:03:02;101439.97;;;14.31;69.14
72262;BME280;60173;52.112;8.648;2022-07-10T06:05:28;101433.03;;;14.06;70.29
72262;BME280;60173;52.112;8.648;2022-07-10T06:07:54;101439.03;;;14.22;69.20
72262;BME280;60173;52.112;8.648;2022-07-10T06:10:21;101434.69;;;14.21;69.58
72262;BME280;60173;52.112;8.648;2022-07-10T06:12:47;101452.31;;;14.29;69.25
72262;BME280;60173;52.112;8.648;2022-07-10T06:15:14;101430.94;;;14.17;69.02
72262;BME280;60173;52.112;8.648;2022-07-10T06:17:44;101444.03;;;14.53;68.15
72262;BME280;60173;52.112;8.648;2022-07-10T06:20:10;101440.94;;;14.73;68.02
72262;BME280;60173;52.112;8.648;2022-07-10T06:22:37;101429.38;;;15.04;67.45
72262;BME280;60173;52.112;8.648;2022-07-10T06:25:05;101432.38;;;15.44;65.87
72262;BME280;60173;52.112;8.648;2022-07-10T06:27:32;101433.81;;;15.41;66.32
72262;BME280;60173;52.112;8.648;2022-07-10T06:30:00;101437.06;;;15.29;66.32
72262;BME280;60173;52.112;8.648;2022-07-10T06:32:26;101437.84;;;15.57;65.31
72262;BME280;60173;52.112;8.648;2022-07-10T06:34:54;101432.50;;;15.38;65.37
72262;BME280;60173;52.112;8.648;2022-07-10T06:37:20;101437.06;;;15.43;64.98
72262;BME280;60173;52.112;8.648;2022-07-10T06:39:47;101435.78;;;15.13;67.04
72262;BME280;60173;52.112;8.648;2022-07-10T06:42:14;101428.59;;;15.53;65.90
72262;BME280;60173;52.112;8.648;2022-07-10T06:44:41;101432.88;;;15.96;63.92
72262;BME280;60173;52.112;8.648;2022-07-10T06:47:09;101430.38;;;16.08;63.72
72262;BME280;60173;52.112;8.648;2022-07-10T06:49:36;101438.41;;;16.04;63.48
72262;BME280;60173;52.112;8.648;2022-07-10T06:52:03;101429.53;;;15.49;64.50
72262;BME280;60173;52.112;8.648;2022-07-10T06:54:37;101430.06;;;15.51;64.39
72262;BME280;60173;52.112;8.648;2022-07-10T06:57:04;101425.69;;;15.50;64.39
72262;BME280;60173;52.112;8.648;2022-07-10T06:59:31;101428.41;;;15.50;64.44
72262;BME280;60173;52.112;8.648;2022-07-10T07:01:57;101438.53;;;15.63;64.51
72262;BME280;60173;52.112;8.648;2022-07-10T07:04:24;101430.84;;;15.51;65.89
72262;BME280;60173;52.112;8.648;2022-07-10T07:06:50;101428.09;;;15.65;64.02
72262;BME280;60173;52.112;8.648;2022-07-10T07:09:16;101431.13;;;15.77;64.50
72262;BME280;60173;52.112;8.648;2022-07-10T07:11:43;101433.97;;;15.72;64.39
72262;BME280;60173;52.112;8.648;2022-07-10T07:14:09;101430.31;;;15.63;63.78
72262;BME280;60173;52.112;8.648;2022-07-10T07:16:35;101440.09;;;15.42;65.04
72262;BME280;60173;52.112;8.648;2022-07-10T07:19:02;101437.84;;;15.57;64.68
72262;BME280;60173;52.112;8.648;2022-07-10T07:21:28;101434.78;;;15.59;64.38
72262;BME280;60173;52.112;8.648;2022-07-10T07:23:54;101433.22;;;15.30;64.34
72262;BME280;60173;52.112;8.648;2022-07-10T07:26:21;101433.72;;;15.19;65.04
72262;BME280;60173;52.112;8.648;2022-07-10T07:28:47;101432.44;;;15.66;63.85
72262;BME280;60173;52.112;8.648;2022-07-10T07:31:13;101430.97;;;15.32;64.19
72262;BME280;60173;52.112;8.648;2022-07-10T07:33:41;101431.94;;;15.64;63.71
72262;BME280;60173;52.112;8.648;2022-07-10T07:36:07;101429.53;;;15.49;64.28
72262;BME280;60173;52.112;8.648;2022-07-10T07:38:33;101431.34;;;15.53;63.83
72262;BME280;60173;52.112;8.648;2022-07-10T07:41:00;101425.13;;;15.25;64.21
72262;BME280;60173;52.112;8.648;2022-07-10T07:43:26;101430.88;;;15.10;65.94
72262;BME280;60173;52.112;8.648;2022-07-10T07:45:52;101435.66;;;14.77;67.47
72262;BME280;60173;52.112;8.648;2022-07-10T07:48:19;101442.16;;;14.95;67.07
72262;BME280;60173;52.112;8.648;2022-07-10T07:50:45;101433.66;;;14.96;66.16
72262;BME280;60173;52.112;8.648;2022-07-10T07:53:12;101437.28;;;15.19;65.51
72262;BME280;60173;52.112;8.648;2022-07-10T07:55:38;101437.03;;;15.57;64.07
72262;BME280;60173;52.112;8.648;2022-07-10T07:58:04;101430.13;;;16.18;62.62
72262;BME280;60173;52.112;8.648;2022-07-10T08:00:31;101430.31;;;16.76;61.05
72262;BME280;60173;52.112;8.648;2022-07-10T08:02:59;101419.53;;;17.36;59.73
72262;BME280;60173;52.112;8.648;2022-07-10T08:05:26;101414.22;;;17.75;58.05
72262;BME280;60173;52.112;8.648;2022-07-10T08:07:55;101418.13;;;17.74;57.23
72262;BME280;60173;52.112;8.648;2022-07-10T08:10:23;101423.59;;;17.56;57.86
72262;BME280;60173;52.112;8.648;2022-07-10T08:12:50;101414.50;;;17.30;57.08
72262;BME280;60173;52.112;8.648;2022-07-10T08:15:18;101421.88;;;17.03;58.90
72262;BME280;60173;52.112;8.648;2022-07-10T08:17:50;101416.06;;;16.96;58.17
72262;BME280;60173;52.112;8.648;2022-07-10T08:20:17;101413.63;;;17.03;58.11
72262;BME280;60173;52.112;8.648;2022-07-10T08:22:45;101413.44;;;16.91;58.71
72262;BME280;60173;52.112;8.648;2022-07-10T08:25:12;101414.44;;;17.04;57.13
72262;BME280;60173;52.112;8.648;2022-07-10T08:27:38;101419.09;;;16.63;58.83
72262;BME280;60173;52.112;8.648;2022-07-10T08:30:06;101409.75;;;16.64;58.80
72262;BME280;60173;52.112;8.648;2022-07-10T08:32:33;101411.81;;;16.59;60.79
72262;BME280;60173;52.112;8.648;2022-07-10T08:34:59;101406.97;;;16.24;59.02
72262;BME280;60173;52.112;8.648;2022-07-10T08:37:26;101411.00;;;16.27;59.77
72262;BME280;60173;52.112;8.648;2022-07-10T08:39:52;101408.72;;;16.20;59.16
72262;BME280;60173;52.112;8.648;2022-07-10T08:42:18;101413.22;;;17.19;58.17
72262;BME280;60173;52.112;8.648;2022-07-10T08:44:46;101411.50;;;17.75;55.74
72262;BME280;60173;52.112;8.648;2022-07-10T08:47:13;101398.56;;;18.01;53.62
72262;BME280;60173;52.112;8.648;2022-07-10T08:49:46;101398.44;;;17.89;53.77
72262;BME280;60173;52.112;8.648;2022-07-10T08:52:25;101401.16;;;17.63;53.66
72262;BME280;60173;52.112;8.648;2022-07-10T08:54:52;101400.78;;;17.38;54.54
72262;BME280;60173;52.112;8.648;2022-07-10T08:57:19;101413.22;;;17.19;54.72
72262;BME280;60173;52.112;8.648;2022-07-10T08:59:45;101412.72;;;17.16;55.13
72262;BME280;60173;52.112;8.648;2022-07-10T09:02:12;101404.44;;;16.99;55.67
72262;BME280;60173;52.112;8.648;2022-07-10T09:04:38;101406.25;;;17.21;55.18
72262;BME280;60173;52.112;8.648;2022-07-10T09:07:05;101393.53;;;17.43;54.74
72262;BME280;60173;52.112;8.648;2022-07-10T09:09:31;101386.13;;;17.87;53.66
72262;BME280;60173;52.112;8.648;2022-07-10T09:11:58;101388.56;;;17.71;51.93
72262;BME280;60173;52.112;8.648;2022-07-10T09:14:26;101390.94;;;18.16;52.88
72262;BME280;60173;52.112;8.648;2022-07-10T09:17:01;101381.75;;;17.68;51.33
72262;BME280;60173;52.112;8.648;2022-07-10T09:19:28;101383.69;;;17.33;53.13
72262;BME280;60173;52.112;8.648;2022-07-10T09:22:02;101386.44;;;17.50;51.64
72262;BME280;60173;52.112;8.648;2022-07-10T09:24:35;101377.56;;;18.05;51.50
72262;BME280;60173;52.112;8.648;2022-07-10T09:27:03;101384.59;;;18.33;50.79
72262;BME280;60173;52.112;8.648;2022-07-10T09:29:31;101388.84;;;18.13;50.76
72262;BME280;60173;52.112;8.648;2022-07-10T09:31:59;101385.16;;;17.74;51.50
72262;BME280;60173;52.112;8.648;2022-07-10T09:34:42;101381.59;;;18.08;51.89
72262;BME280;60173;52.112;8.648;2022-07-10T09:40:01;101385.81;;;17.53;50.60
72262;BME280;60173;52.112;8.648;2022-07-10T09:42:35;101376.56;;;17.49;51.61
72262;BME280;60173;52.112;8.648;2022-07-10T09:47:43;101387.66;;;17.09;53.81
72262;BME280;60173;52.112;8.648;2022-07-10T09:50:33;101384.31;;;17.30;53.61
72262;BME280;60173;52.112;8.648;2022-07-10T09:53:01;101383.84;;;17.45;54.61
72262;BME280;60173;52.112;8.648;2022-07-10T09:55:30;101391.28;;;17.36;53.89
72262;BME280;60173;52.112;8.648;2022-07-10T10:00:32;101385.56;;;17.06;55.21
72262;BME280;60173;52.112;8.648;2022-07-10T10:03:03;101388.75;;;16.91;55.85
72262;BME280;60173;52.112;8.648;2022-07-10T10:05:34;101388.91;;;16.94;56.04
72262;BME280;60173;52.112;8.648;2022-07-10T10:08:10;101405.72;;;16.93;56.77
72262;BME280;60173;52.112;8.648;2022-07-10T10:10:42;101393.41;;;17.48;55.67
72262;BME280;60173;52.112;8.648;2022-07-10T10:13:10;101388.34;;;17.41;55.93
72262;BME280;60173;52.112;8.648;2022-07-10T10:15:37;101387.72;;;17.44;56.47
72262;BME280;60173;52.112;8.648;2022-07-10T10:18:05;101394.66;;;18.20;55.44
72262;BME280;60173;52.112;8.648;2022-07-10T10:20:32;101393.00;;;18.27;55.42
72262;BME280;60173;52.112;8.648;2022-07-10T10:22:59;101393.53;;;18.21;55.13
72262;BME280;60173;52.112;8.648;2022-07-10T10:25:28;101389.81;;;18.25;55.48
72262;BME280;60173;52.112;8.648;2022-07-10T10:27:55;101393.63;;;18.42;55.42
72262;BME280;60173;52.112;8.648;2022-07-10T10:30:22;101400.94;;;18.29;55.87
72262;BME280;60173;52.112;8.648;2022-07-10T10:32:48;101391.47;;;17.92;56.38
72262;BME280;60173;52.112;8.648;2022-07-10T10:35:44;101391.09;;;17.41;57.71
72262;BME280;60173;52.112;8.648;2022-07-10T10:38:10;101407.09;;;17.30;58.38
72262;BME280;60173;52.112;8.648;2022-07-10T10:40:36;101404.50;;;17.34;58.33
72262;BME280;60173;52.112;8.648;2022-07-10T10:45:46;101406.16;;;17.61;57.45
72262;BME280;60173;52.112;8.648;2022-07-10T10:48:15;101414.22;;;17.57;58.36
72262;BME280;60173;52.112;8.648;2022-07-10T10:51:01;101404.53;;;17.51;58.62
72262;BME280;60173;52.112;8.648;2022-07-10T10:53:28;101402.63;;;17.95;58.09
72262;BME280;60173;52.112;8.648;2022-07-10T10:58:40;101405.22;;;17.83;58.32
72262;BME280;60173;52.112;8.648;2022-07-10T11:06:53;101393.41;;;17.74;59.22
72262;BME280;60173;52.112;8.648;2022-07-10T11:09:30;101388.72;;;17.66;60.38
72262;BME280;60173;52.112;8.648;2022-07-10T11:14:34;101393.84;;;17.76;59.74
72262;BME280;60173;52.112;8.648;2022-07-10T11:17:00;101392.75;;;17.59;59.43
72262;BME280;60173;52.112;8.648;2022-07-10T11:19:28;101408.13;;;17.78;59.79
72262;BME280;60173;52.112;8.648;2022-07-10T11:22:03;101405.03;;;17.45;60.20
72262;BME280;60173;52.112;8.648;2022-07-10T11:27:35;101411.41;;;16.43;66.51
72262;BME280;60173;52.112;8.648;2022-07-10T11:30:05;101414.06;;;16.25;68.50
72262;BME280;60173;52.112;8.648;2022-07-10T11:32:33;101406.59;;;16.48;69.11
72262;BME280;60173;52.112;8.648;2022-07-10T11:34:59;101396.59;;;16.75;68.33
72262;BME280;60173;52.112;8.648;2022-07-10T11:37:26;101399.44;;;16.61;68.62
72262;BME280;60173;52.112;8.648;2022-07-10T11:40:07;101403.00;;;16.70;67.82
72262;BME280;60173;52.112;8.648;2022-07-10T11:42:56;101398.59;;;16.92;67.80
72262;BME280;60173;52.112;8.648;2022-07-10T11:45:32;101394.75;;;17.02;66.26
72262;BME280;60173;52.112;8.648;2022-07-10T11:47:59;101394.00;;;17.19;66.14
72262;BME280;60173;52.112;8.648;2022-07-10T11:50:27;101391.44;;;17.57;65.75
72262;BME280;60173;52.112;8.648;2022-07-10T11:52:54;101391.91;;;17.15;67.44
72262;BME280;60173;52.112;8.648;2022-07-10T11:55:26;101390.63;;;17.22;68.30
72262;BME280;60173;52.112;8.648;2022-07-10T11:57:52;101397.75;;;17.66;65.03
72262;BME280;60173;52.112;8.648;2022-07-10T12:00:30;101389.66;;;17.70;64.60
72262;BME280;60173;52.112;8.648;2022-07-10T12:02:57;101398.13;;;17.82;64.46
72262;BME280;60173;52.112;8.648;2022-07-10T12:05:42;101391.56;;;17.26;64.98
72262;BME280;60173;52.112;8.648;2022-07-10T12:08:08;101390.34;;;16.92;65.94
72262;BME280;60173;52.112;8.648;2022-07-10T12:10:35;101390.25;;;16.75;66.85
72262;BME280;60173;52.112;8.648;2022-07-10T12:13:09;101393.47;;;16.99;65.91
72262;BME280;60173;52.112;8.648;2022-07-10T12:15:38;101398.84;;;17.22;65.09
72262;BME280;60173;52.112;8.648;2022-07-10T12:18:09;101395.50;;;17.59;64.80
72262;BME280;60173;52.112;8.648;2022-07-10T12:20:41;101398.56;;;17.58;63.89
72262;BME280;60173;52.112;8.648;2022-07-10T12:23:08;101398.41;;;17.54;63.94
72262;BME280;60173;52.112;8.648;2022-07-10T12:25:35;101392.88;;;17.37;64.38
72262;BME280;60173;52.112;8.648;2022-07-10T12:28:01;101395.28;;;17.38;64.55
72262;BME280;60173;52.112;8.648;2022-07-10T12:30:42;101393.84;;;17.58;63.15
72262;BME280;60173;52.112;8.648;2022-07-10T12:33:13;101397.66;;;17.05;64.90
72262;BME280;60173;52.112;8.648;2022-07-10T12:35:56;101400.72;;;17.04;66.08
72262;BME280;60173;52.112;8.648;2022-07-10T12:38:25;101383.16;;;16.73;66.73
72262;BME280;60173;52.112;8.648;2022-07-10T12:41:08;101401.75;;;17.25;65.30
72262;BME280;60173;52.112;8.648;2022-07-10T12:43:35;101396.28;;;17.34;65.20
72262;BME280;60173;52.112;8.648;2022-07-10T12:46:15;101391.63;;;17.95;63.48
72262;BME280;60173;52.112;8.648;2022-07-10T12:48:43;101394.56;;;18.55;61.40
72262;BME280;60173;52.112;8.648;2022-07-10T12:51:30;101392.16;;;18.44;61.46
72262;BME280;60173;52.112;8.648;2022-07-10T12:54:38;101402.75;;;18.07;62.57
72262;BME280;60173;52.112;8.648;2022-07-10T12:57:05;101394.06;;;17.88;62.92
72262;BME280;60173;52.112;8.648;2022-07-10T12:59:36;101395.38;;;17.82;63.56
72262;BME280;60173;52.112;8.648;2022-07-10T13:02:19;101393.25;;;17.79;64.60
72262;BME280;60173;52.112;8.648;2022-07-10T13:04:57;101398.28;;;16.62;67.65
72262;BME280;60173;52.112;8.648;2022-07-10T13:07:34;101388.75;;;16.28;69.62
72262;BME280;60173;52.112;8.648;2022-07-10T13:10:07;101395.16;;;16.46;69.84
72262;BME280;60173;52.112;8.648;2022-07-10T13:12:34;101396.28;;;16.45;70.40
72262;BME280;60173;52.112;8.648;2022-07-10T13:15:02;101391.53;;;16.37;70.83
72262;BME280;60173;52.112;8.648;2022-07-10T13:17:29;101394.28;;;16.06;71.13
72262;BME280;60173;52.112;8.648;2022-07-10T13:19:56;101397.75;;;15.98;72.37